sensor_id;sensor_type;location;lat;lon;timestamp;P1;durP1;ratioP1;P2;durP2;ratioP2
42066;SDS011;27734;47.028;28.820;2024-01-11T00:01:30;36.77;;;13.60;;
42066;SDS011;27734;47.028;28.820;2024-01-11T00:04:02;34.60;;;14.17;;
42066;SDS011;27734;47.028;28.820;2024-01-11T00:06:33;30.63;;;12.17;;
42066;SDS011;27734;47.028;28.820;2024-01-11T00:09:11;36.40;;;14.77;;
42066;SDS011;27734;47.028;28.820;2024-01-11T00:11:42;31.47;;;13.20;;
42066;SDS011;27734;47.028;28.820;2024-01-11T00:14:13;36.50;;;14.00;;
42066;SDS011;27734;47.028;28.820;2024-01-11T00:16:44;29.80;;;12.10;;
42066;SDS011;27734;47.028;28.820;2024-01-11T00:19:15;32.23;;;13.07;;
42066;SDS011;27734;47.028;28.820;2024-01-11T00:21:46;32.23;;;13.73;;
42066;SDS011;27734;47.028;28.820;2024-01-11T00:24:17;33.65;;;13.10;;
42066;SDS011;27734;47.028;28.820;2024-01-11T00:26:49;34.10;;;12.73;;
42066;SDS011;27734;47.028;28.820;2024-01-11T00:29:20;34.90;;;13.77;;
42066;SDS011;27734;47.028;28.820;2024-01-11T00:31:51;32.93;;;12.60;;
42066;SDS011;27734;47.028;28.820;2024-01-11T00:34:22;33.37;;;14.17;;
42066;SDS011;27734;47.028;28.820;2024-01-11T00:36:53;33.10;;;13.27;;
42066;SDS011;27734;47.028;28.820;2024-01-11T00:39:24;33.30;;;14.30;;
42066;SDS011;27734;47.028;28.820;2024-01-11T00:41:55;36.63;;;13.43;;
42066;SDS011;27734;47.028;28.820;2024-01-11T00:44:27;35.30;;;14.83;;
42066;SDS011;27734;47.028;28.820;2024-01-11T00:46:58;39.30;;;14.40;;
42066;SDS011;27734;47.028;28.820;2024-01-11T00:49:29;37.20;;;14.33;;
42066;SDS011;27734;47.028;28.820;2024-01-11T00:52:00;28.90;;;12.60;;
42066;SDS011;27734;47.028;28.820;2024-01-11T00:54:32;31.45;;;13.35;;
42066;SDS011;27734;47.028;28.820;2024-01-11T00:57:03;35.75;;;14.65;;
42066;SDS011;27734;47.028;28.820;2024-01-11T00:59:34;35.53;;;14.50;;
42066;SDS011;27734;47.028;28.820;2024-01-11T01:02:05;34.57;;;13.77;;
42066;SDS011;27734;47.028;28.820;2024-01-11T01:04:38;38.47;;;16.07;;
42066;SDS011;27734;47.028;28.820;2024-01-11T01:07:12;36.20;;;14.73;;
42066;SDS011;27734;47.028;28.820;2024-01-11T01:09:43;38.23;;;14.78;;
42066;SDS011;27734;47.028;28.820;2024-01-11T01:12:14;33.53;;;14.47;;
42066;SDS011;27734;47.028;28.820;2024-01-11T01:14:46;33.67;;;14.27;;
42066;SDS011;27734;47.028;28.820;2024-01-11T01:17:17;38.10;;;15.77;;
42066;SDS011;27734;47.028;28.820;2024-01-11T01:19:48;37.67;;;15.20;;
42066;SDS011;27734;47.028;28.820;2024-01-11T01:22:19;41.00;;;15.97;;
42066;SDS011;27734;47.028;28.820;2024-01-11T01:24:50;34.67;;;15.90;;
42066;SDS011;27734;47.028;28.820;2024-01-11T01:27:21;41.60;;;16.70;;
42066;SDS011;27734;47.028;28.820;2024-01-11T01:29:52;41.07;;;17.17;;
42066;SDS011;27734;47.028;28.820;2024-01-11T01:32:23;39.10;;;16.30;;
42066;SDS011;27734;47.028;28.820;2024-01-11T01:34:55;32.50;;;13.37;;
42066;SDS011;27734;47.028;28.820;2024-01-11T01:37:26;33.33;;;12.00;;
42066;SDS011;27734;47.028;28.820;2024-01-11T01:39:57;37.10;;;14.30;;
42066;SDS011;27734;47.028;28.820;2024-01-11T01:42:32;37.85;;;14.35;;
42066;SDS011;27734;47.028;28.820;2024-01-11T01:45:04;35.63;;;13.87;;
42066;SDS011;27734;47.028;28.820;2024-01-11T01:47:37;37.65;;;14.40;;
42066;SDS011;27734;47.028;28.820;2024-01-11T01:50:11;33.15;;;14.45;;
42066;SDS011;27734;47.028;28.820;2024-01-11T01:52:43;38.70;;;15.80;;
42066;SDS011;27734;47.028;28.820;2024-01-11T01:55:15;32.63;;;14.37;;
42066;SDS011;27734;47.028;28.820;2024-01-11T01:57:47;34.93;;;13.63;;
42066;SDS011;27734;47.028;28.820;2024-01-11T02:00:22;30.03;;;12.03;;
42066;SDS011;27734;47.028;28.820;2024-01-11T02:02:54;34.17;;;13.83;;
42066;SDS011;27734;47.028;28.820;2024-01-11T02:05:27;36.58;;;14.13;;
42066;SDS011;27734;47.028;28.820;2024-01-11T02:07:59;34.77;;;13.80;;
42066;SDS011;27734;47.028;28.820;2024-01-11T02:10:33;30.83;;;12.80;;
42066;SDS011;27734;47.028;28.820;2024-01-11T02:13:05;38.73;;;13.53;;
42066;SDS011;27734;47.028;28.820;2024-01-11T02:15:36;35.50;;;13.07;;
42066;SDS011;27734;47.028;28.820;2024-01-11T02:18:08;30.75;;;12.15;;
42066;SDS011;27734;47.028;28.820;2024-01-11T02:20:39;34.50;;;13.23;;
42066;SDS011;27734;47.028;28.820;2024-01-11T02:23:12;35.10;;;13.40;;
42066;SDS011;27734;47.028;28.820;2024-01-11T02:25:47;33.97;;;13.70;;
42066;SDS011;27734;47.028;28.820;2024-01-11T02:28:19;32.90;;;13.50;;
42066;SDS011;27734;47.028;28.820;2024-01-11T02:30:50;34.80;;;14.60;;
42066;SDS011;27734;47.028;28.820;2024-01-11T02:33:21;33.37;;;12.67;;
42066;SDS011;27734;47.028;28.820;2024-01-11T02:35:53;32.80;;;12.70;;
42066;SDS011;27734;47.028;28.820;2024-01-11T02:38:24;31.97;;;12.83;;
42066;SDS011;27734;47.028;28.820;2024-01-11T02:40:55;34.53;;;13.20;;
42066;SDS011;27734;47.028;28.820;2024-01-11T02:43:28;31.25;;;12.30;;
42066;SDS011;27734;47.028;28.820;2024-01-11T02:46:00;34.20;;;12.97;;
42066;SDS011;27734;47.028;28.820;2024-01-11T02:48:31;34.97;;;13.90;;
42066;SDS011;27734;47.028;28.820;2024-01-11T02:51:02;28.83;;;12.10;;
42066;SDS011;27734;47.028;28.820;2024-01-11T02:53:34;36.87;;;13.50;;
42066;SDS011;27734;47.028;28.820;2024-01-11T02:56:05;31.03;;;11.53;;
42066;SDS011;27734;47.028;28.820;2024-01-11T02:58:36;35.33;;;12.90;;
42066;SDS011;27734;47.028;28.820;2024-01-11T03:01:07;36.50;;;13.40;;
42066;SDS011;27734;47.028;28.820;2024-01-11T03:03:38;35.95;;;13.45;;
42066;SDS011;27734;47.028;28.820;2024-01-11T03:06:09;36.53;;;13.37;;
42066;SDS011;27734;47.028;28.820;2024-01-11T03:08:41;33.40;;;12.23;;
42066;SDS011;27734;47.028;28.820;2024-01-11T03:11:14;29.23;;;10.80;;
42066;SDS011;27734;47.028;28.820;2024-01-11T03:13:45;32.73;;;12.90;;
42066;SDS011;27734;47.028;28.820;2024-01-11T03:16:17;28.87;;;11.07;;
42066;SDS011;27734;47.028;28.820;2024-01-11T03:18:48;33.10;;;11.93;;
42066;SDS011;27734;47.028;28.820;2024-01-11T03:21:19;31.63;;;11.80;;
42066;SDS011;27734;47.028;28.820;2024-01-11T03:23:50;40.37;;;14.67;;
42066;SDS011;27734;47.028;28.820;2024-01-11T03:26:21;31.73;;;12.27;;
42066;SDS011;27734;47.028;28.820;2024-01-11T03:28:53;33.50;;;12.90;;
42066;SDS011;27734;47.028;28.820;2024-01-11T03:31:24;32.00;;;11.83;;
42066;SDS011;27734;47.028;28.820;2024-01-11T03:33:55;30.70;;;12.43;;
42066;SDS011;27734;47.028;28.820;2024-01-11T03:36:26;33.33;;;13.27;;
42066;SDS011;27734;47.028;28.820;2024-01-11T03:38:57;35.50;;;11.57;;
42066;SDS011;27734;47.028;28.820;2024-01-11T03:41:29;37.20;;;13.13;;
42066;SDS011;27734;47.028;28.820;2024-01-11T03:44:00;34.23;;;12.60;;
42066;SDS011;27734;47.028;28.820;2024-01-11T03:46:31;32.93;;;12.10;;
42066;SDS011;27734;47.028;28.820;2024-01-11T03:49:02;31.50;;;13.43;;
42066;SDS011;27734;47.028;28.820;2024-01-11T03:51:35;31.10;;;12.93;;
42066;SDS011;27734;47.028;28.820;2024-01-11T03:54:06;33.43;;;12.87;;
42066;SDS011;27734;47.028;28.820;2024-01-11T03:56:38;34.97;;;12.47;;
42066;SDS011;27734;47.028;28.820;2024-01-11T03:59:10;34.77;;;13.23;;
42066;SDS011;27734;47.028;28.820;2024-01-11T04:01:41;31.03;;;12.73;;
42066;SDS011;27734;47.028;28.820;2024-01-11T04:04:12;31.87;;;10.67;;
42066;SDS011;27734;47.028;28.820;2024-01-11T04:06:43;33.00;;;12.03;;
42066;SDS011;27734;47.028;28.820;2024-01-11T04:09:15;28.23;;;10.50;;
42066;SDS011;27734;47.028;28.820;2024-01-11T04:11:46;33.90;;;12.57;;
42066;SDS011;27734;47.028;28.820;2024-01-11T04:14:17;35.27;;;11.00;;
42066;SDS011;27734;47.028;28.820;2024-01-11T04:16:48;33.17;;;12.23;;
42066;SDS011;27734;47.028;28.820;2024-01-11T04:19:19;32.27;;;12.53;;
42066;SDS011;27734;47.028;28.820;2024-01-11T04:21:51;28.90;;;11.10;;
42066;SDS011;27734;47.028;28.820;2024-01-11T04:24:22;31.47;;;10.60;;
42066;SDS011;27734;47.028;28.820;2024-01-11T04:26:53;33.00;;;11.60;;
42066;SDS011;27734;47.028;28.820;2024-01-11T04:29:24;27.73;;;10.23;;
42066;SDS011;27734;47.028;28.820;2024-01-11T04:31:55;26.50;;;9.37;;
42066;SDS011;27734;47.028;28.820;2024-01-11T04:34:26;28.27;;;10.83;;
42066;SDS011;27734;47.028;28.820;2024-01-11T04:36:58;29.80;;;10.70;;
42066;SDS011;27734;47.028;28.820;2024-01-11T04:39:29;27.20;;;10.33;;
42066;SDS011;27734;47.028;28.820;2024-01-11T04:42:02;28.30;;;9.83;;
42066;SDS011;27734;47.028;28.820;2024-01-11T04:44:34;25.00;;;8.60;;
42066;SDS011;27734;47.028;28.820;2024-01-11T04:47:05;25.70;;;8.93;;
42066;SDS011;27734;47.028;28.820;2024-01-11T04:49:36;29.93;;;10.20;;
42066;SDS011;27734;47.028;28.820;2024-01-11T04:52:08;28.60;;;10.40;;
42066;SDS011;27734;47.028;28.820;2024-01-11T04:54:39;27.80;;;10.40;;
42066;SDS011;27734;47.028;28.820;2024-01-11T04:57:10;28.70;;;10.83;;
42066;SDS011;27734;47.028;28.820;2024-01-11T04:59:41;30.07;;;10.50;;
42066;SDS011;27734;47.028;28.820;2024-01-11T05:02:12;31.55;;;12.30;;
42066;SDS011;27734;47.028;28.820;2024-01-11T05:04:43;35.87;;;14.43;;
42066;SDS011;27734;47.028;28.820;2024-01-11T05:07:15;32.40;;;12.17;;
42066;SDS011;27734;47.028;28.820;2024-01-11T05:09:46;33.00;;;13.30;;
42066;SDS011;27734;47.028;28.820;2024-01-11T05:12:17;32.67;;;12.30;;
42066;SDS011;27734;47.028;28.820;2024-01-11T05:14:49;34.20;;;13.67;;
42066;SDS011;27734;47.028;28.820;2024-01-11T05:17:21;34.17;;;12.87;;
42066;SDS011;27734;47.028;28.820;2024-01-11T05:19:52;34.17;;;12.37;;
42066;SDS011;27734;47.028;28.820;2024-01-11T05:22:23;34.53;;;13.00;;
42066;SDS011;27734;47.028;28.820;2024-01-11T05:24:54;37.73;;;12.63;;
42066;SDS011;27734;47.028;28.820;2024-01-11T05:27:25;31.60;;;12.67;;
42066;SDS011;27734;47.028;28.820;2024-01-11T05:29:56;32.97;;;11.90;;
42066;SDS011;27734;47.028;28.820;2024-01-11T05:32:27;28.50;;;12.03;;
42066;SDS011;27734;47.028;28.820;2024-01-11T05:34:59;33.80;;;12.47;;
42066;SDS011;27734;47.028;28.820;2024-01-11T05:37:30;28.63;;;11.17;;
42066;SDS011;27734;47.028;28.820;2024-01-11T05:40:01;28.87;;;11.07;;
42066;SDS011;27734;47.028;28.820;2024-01-11T05:42:32;29.90;;;10.40;;
42066;SDS011;27734;47.028;28.820;2024-01-11T05:45:05;28.00;;;10.73;;
42066;SDS011;27734;47.028;28.820;2024-01-11T05:47:37;32.03;;;11.07;;
42066;SDS011;27734;47.028;28.820;2024-01-11T05:50:09;29.20;;;11.20;;
42066;SDS011;27734;47.028;28.820;2024-01-11T05:52:40;29.43;;;10.83;;
42066;SDS011;27734;47.028;28.820;2024-01-11T05:55:11;26.13;;;9.40;;
42066;SDS011;27734;47.028;28.820;2024-01-11T05:57:43;28.40;;;9.83;;
42066;SDS011;27734;47.028;28.820;2024-01-11T06:00:15;28.30;;;10.10;;
42066;SDS011;27734;47.028;28.820;2024-01-11T06:02:47;28.70;;;9.40;;
42066;SDS011;27734;47.028;28.820;2024-01-11T06:05:18;26.33;;;9.30;;
42066;SDS011;27734;47.028;28.820;2024-01-11T06:07:50;26.07;;;8.47;;
42066;SDS011;27734;47.028;28.820;2024-01-11T06:10:21;23.47;;;9.20;;
42066;SDS011;27734;47.028;28.820;2024-01-11T06:12:52;24.03;;;9.27;;
42066;SDS011;27734;47.028;28.820;2024-01-11T06:15:24;27.13;;;8.57;;
42066;SDS011;27734;47.028;28.820;2024-01-11T06:17:57;24.43;;;9.00;;
42066;SDS011;27734;47.028;28.820;2024-01-11T06:20:28;25.57;;;8.97;;
42066;SDS011;27734;47.028;28.820;2024-01-11T06:22:59;25.23;;;9.27;;
42066;SDS011;27734;47.028;28.820;2024-01-11T06:25:30;25.55;;;8.75;;
42066;SDS011;27734;47.028;28.820;2024-01-11T06:28:02;28.27;;;9.70;;
42066;SDS011;27734;47.028;28.820;2024-01-11T06:30:37;29.50;;;10.53;;
42066;SDS011;27734;47.028;28.820;2024-01-11T06:33:08;26.12;;;10.10;;
42066;SDS011;27734;47.028;28.820;2024-01-11T06:35:39;24.83;;;9.13;;
42066;SDS011;27734;47.028;28.820;2024-01-11T06:38:10;27.03;;;9.87;;
42066;SDS011;27734;47.028;28.820;2024-01-11T06:40:42;30.20;;;10.57;;
42066;SDS011;27734;47.028;28.820;2024-01-11T06:43:13;29.90;;;9.20;;
42066;SDS011;27734;47.028;28.820;2024-01-11T06:45:44;26.07;;;9.50;;
42066;SDS011;27734;47.028;28.820;2024-01-11T06:48:15;25.93;;;9.90;;
42066;SDS011;27734;47.028;28.820;2024-01-11T06:50:46;26.83;;;10.27;;
42066;SDS011;27734;47.028;28.820;2024-01-11T06:53:17;26.33;;;9.23;;
42066;SDS011;27734;47.028;28.820;2024-01-11T06:55:49;28.53;;;9.70;;
42066;SDS011;27734;47.028;28.820;2024-01-11T06:58:23;28.50;;;11.00;;
42066;SDS011;27734;47.028;28.820;2024-01-11T07:00:54;29.63;;;8.63;;
42066;SDS011;27734;47.028;28.820;2024-01-11T07:03:26;29.13;;;10.63;;
42066;SDS011;27734;47.028;28.820;2024-01-11T07:05:59;31.00;;;11.00;;
42066;SDS011;27734;47.028;28.820;2024-01-11T07:08:31;30.80;;;11.55;;
42066;SDS011;27734;47.028;28.820;2024-01-11T07:11:03;30.70;;;10.33;;
42066;SDS011;27734;47.028;28.820;2024-01-11T07:13:35;27.90;;;9.83;;
42066;SDS011;27734;47.028;28.820;2024-01-11T07:16:06;25.57;;;9.87;;
42066;SDS011;27734;47.028;28.820;2024-01-11T07:18:39;25.53;;;9.83;;
42066;SDS011;27734;47.028;28.820;2024-01-11T07:21:10;24.43;;;8.70;;
42066;SDS011;27734;47.028;28.820;2024-01-11T07:23:41;25.37;;;8.17;;
42066;SDS011;27734;47.028;28.820;2024-01-11T07:26:12;23.73;;;9.10;;
42066;SDS011;27734;47.028;28.820;2024-01-11T07:28:44;25.80;;;8.63;;
42066;SDS011;27734;47.028;28.820;2024-01-11T07:31:16;24.20;;;9.10;;
42066;SDS011;27734;47.028;28.820;2024-01-11T07:33:48;24.87;;;8.97;;
42066;SDS011;27734;47.028;28.820;2024-01-11T07:36:22;29.47;;;8.33;;
42066;SDS011;27734;47.028;28.820;2024-01-11T07:38:57;25.43;;;8.97;;
42066;SDS011;27734;47.028;28.820;2024-01-11T07:41:30;32.50;;;9.57;;
42066;SDS011;27734;47.028;28.820;2024-01-11T07:44:02;22.63;;;8.37;;
42066;SDS011;27734;47.028;28.820;2024-01-11T07:46:33;23.33;;;8.70;;
42066;SDS011;27734;47.028;28.820;2024-01-11T07:49:05;25.50;;;9.77;;
42066;SDS011;27734;47.028;28.820;2024-01-11T07:54:17;23.70;;;8.90;;
42066;SDS011;27734;47.028;28.820;2024-01-11T07:56:48;19.60;;;7.85;;
42066;SDS011;27734;47.028;28.820;2024-01-11T07:59:19;20.93;;;7.97;;
42066;SDS011;27734;47.028;28.820;2024-01-11T08:01:51;25.37;;;8.90;;
42066;SDS011;27734;47.028;28.820;2024-01-11T08:04:24;26.43;;;9.27;;
42066;SDS011;27734;47.028;28.820;2024-01-11T08:06:58;23.73;;;9.17;;
42066;SDS011;27734;47.028;28.820;2024-01-11T08:09:30;24.67;;;9.73;;
42066;SDS011;27734;47.028;28.820;2024-01-11T08:12:01;25.10;;;9.20;;
42066;SDS011;27734;47.028;28.820;2024-01-11T08:14:33;22.00;;;9.07;;
42066;SDS011;27734;47.028;28.820;2024-01-11T08:17:05;25.23;;;9.60;;
42066;SDS011;27734;47.028;28.820;2024-01-11T08:19:37;25.03;;;8.97;;
42066;SDS011;27734;47.028;28.820;2024-01-11T08:22:11;24.50;;;8.60;;
42066;SDS011;27734;47.028;28.820;2024-01-11T08:24:42;27.70;;;10.20;;
42066;SDS011;27734;47.028;28.820;2024-01-11T08:27:15;29.80;;;10.03;;
42066;SDS011;27734;47.028;28.820;2024-01-11T08:29:47;25.07;;;9.97;;
42066;SDS011;27734;47.028;28.820;2024-01-11T08:32:20;24.27;;;9.63;;
42066;SDS011;27734;47.028;28.820;2024-01-11T08:34:52;26.17;;;10.33;;
42066;SDS011;27734;47.028;28.820;2024-01-11T08:37:26;25.33;;;10.30;;
42066;SDS011;27734;47.028;28.820;2024-01-11T08:40:00;25.90;;;10.10;;
42066;SDS011;27734;47.028;28.820;2024-01-11T08:42:32;28.07;;;10.93;;
42066;SDS011;27734;47.028;28.820;2024-01-11T08:45:05;28.30;;;10.60;;
42066;SDS011;27734;47.028;28.820;2024-01-11T08:47:37;28.30;;;10.83;;
42066;SDS011;27734;47.028;28.820;2024-01-11T08:50:08;27.13;;;11.23;;
42066;SDS011;27734;47.028;28.820;2024-01-11T08:52:43;29.83;;;12.23;;
42066;SDS011;27734;47.028;28.820;2024-01-11T08:55:15;28.15;;;11.10;;
42066;SDS011;27734;47.028;28.820;2024-01-11T08:57:46;26.95;;;10.55;;
42066;SDS011;27734;47.028;28.820;2024-01-11T09:00:20;26.20;;;9.53;;
42066;SDS011;27734;47.028;28.820;2024-01-11T09:02:51;23.52;;;9.00;;
42066;SDS011;27734;47.028;28.820;2024-01-11T09:05:24;26.05;;;8.38;;
42066;SDS011;27734;47.028;28.820;2024-01-11T09:07:56;20.10;;;7.80;;
42066;SDS011;27734;47.028;28.820;2024-01-11T09:10:27;19.95;;;7.75;;
42066;SDS011;27734;47.028;28.820;2024-01-11T09:12:58;24.77;;;8.63;;
42066;SDS011;27734;47.028;28.820;2024-01-11T09:15:30;22.70;;;8.67;;
42066;SDS011;27734;47.028;28.820;2024-01-11T09:18:01;22.67;;;8.30;;
42066;SDS011;27734;47.028;28.820;2024-01-11T09:20:33;22.63;;;8.70;;
42066;SDS011;27734;47.028;28.820;2024-01-11T09:23:05;19.10;;;7.30;;
42066;SDS011;27734;47.028;28.820;2024-01-11T09:25:37;18.37;;;7.93;;
42066;SDS011;27734;47.028;28.820;2024-01-11T09:28:08;21.30;;;8.33;;
42066;SDS011;27734;47.028;28.820;2024-01-11T09:30:40;18.80;;;6.87;;
42066;SDS011;27734;47.028;28.820;2024-01-11T09:33:11;17.90;;;6.20;;
42066;SDS011;27734;47.028;28.820;2024-01-11T09:35:43;15.63;;;6.33;;
42066;SDS011;27734;47.028;28.820;2024-01-11T09:38:14;15.07;;;5.90;;
42066;SDS011;27734;47.028;28.820;2024-01-11T09:40:46;15.97;;;5.77;;
42066;SDS011;27734;47.028;28.820;2024-01-11T09:43:22;16.43;;;6.33;;
42066;SDS011;27734;47.028;28.820;2024-01-11T09:45:54;14.63;;;5.67;;
42066;SDS011;27734;47.028;28.820;2024-01-11T09:48:27;13.33;;;5.60;;
42066;SDS011;27734;47.028;28.820;2024-01-11T09:50:59;14.30;;;5.60;;
42066;SDS011;27734;47.028;28.820;2024-01-11T09:53:33;14.93;;;5.63;;
42066;SDS011;27734;47.028;28.820;2024-01-11T09:56:07;13.10;;;5.60;;
42066;SDS011;27734;47.028;28.820;2024-01-11T09:58:44;13.63;;;5.13;;
42066;SDS011;27734;47.028;28.820;2024-01-11T10:01:18;16.47;;;6.33;;
42066;SDS011;27734;47.028;28.820;2024-01-11T10:03:50;14.65;;;5.85;;
42066;SDS011;27734;47.028;28.820;2024-01-11T10:06:23;15.50;;;6.25;;
42066;SDS011;27734;47.028;28.820;2024-01-11T10:08:55;15.10;;;5.67;;
42066;SDS011;27734;47.028;28.820;2024-01-11T10:11:26;10.60;;;4.40;;
42066;SDS011;27734;47.028;28.820;2024-01-11T10:13:58;14.90;;;5.70;;
42066;SDS011;27734;47.028;28.820;2024-01-11T10:16:29;11.40;;;4.77;;
42066;SDS011;27734;47.028;28.820;2024-01-11T10:19:03;13.50;;;5.30;;
42066;SDS011;27734;47.028;28.820;2024-01-11T10:21:35;15.97;;;5.83;;
42066;SDS011;27734;47.028;28.820;2024-01-11T10:24:08;15.57;;;5.87;;
42066;SDS011;27734;47.028;28.820;2024-01-11T10:26:47;14.60;;;6.47;;
42066;SDS011;27734;47.028;28.820;2024-01-11T10:29:19;16.27;;;6.53;;
42066;SDS011;27734;47.028;28.820;2024-01-11T10:31:52;18.63;;;7.40;;
42066;SDS011;27734;47.028;28.820;2024-01-11T10:34:24;18.50;;;6.67;;
42066;SDS011;27734;47.028;28.820;2024-01-11T10:36:56;14.83;;;6.03;;
42066;SDS011;27734;47.028;28.820;2024-01-11T10:39:30;14.07;;;5.67;;
42066;SDS011;27734;47.028;28.820;2024-01-11T10:42:05;15.25;;;5.80;;
42066;SDS011;27734;47.028;28.820;2024-01-11T10:44:38;16.13;;;6.13;;
42066;SDS011;27734;47.028;28.820;2024-01-11T10:47:16;14.43;;;5.90;;
42066;SDS011;27734;47.028;28.820;2024-01-11T10:49:50;14.47;;;6.07;;
42066;SDS011;27734;47.028;28.820;2024-01-11T10:52:26;17.63;;;6.33;;
42066;SDS011;27734;47.028;28.820;2024-01-11T10:55:04;18.20;;;6.30;;
42066;SDS011;27734;47.028;28.820;2024-01-11T10:57:36;13.27;;;5.60;;
42066;SDS011;27734;47.028;28.820;2024-01-11T11:00:09;14.10;;;5.90;;
42066;SDS011;27734;47.028;28.820;2024-01-11T11:02:41;13.53;;;5.47;;
42066;SDS011;27734;47.028;28.820;2024-01-11T11:05:14;15.23;;;6.10;;
42066;SDS011;27734;47.028;28.820;2024-01-11T11:07:49;15.23;;;5.43;;
42066;SDS011;27734;47.028;28.820;2024-01-11T11:10:22;14.23;;;5.70;;
42066;SDS011;27734;47.028;28.820;2024-01-11T11:12:56;11.20;;;4.40;;
42066;SDS011;27734;47.028;28.820;2024-01-11T11:15:33;11.83;;;4.50;;
42066;SDS011;27734;47.028;28.820;2024-01-11T11:18:10;11.40;;;4.37;;
42066;SDS011;27734;47.028;28.820;2024-01-11T11:20:45;12.77;;;5.03;;
42066;SDS011;27734;47.028;28.820;2024-01-11T11:23:25;16.70;;;4.70;;
42066;SDS011;27734;47.028;28.820;2024-01-11T11:25:57;12.23;;;4.70;;
42066;SDS011;27734;47.028;28.820;2024-01-11T11:28:29;10.80;;;4.53;;
42066;SDS011;27734;47.028;28.820;2024-01-11T11:31:04;11.00;;;4.33;;
42066;SDS011;27734;47.028;28.820;2024-01-11T11:33:36;7.87;;;3.80;;
42066;SDS011;27734;47.028;28.820;2024-01-11T11:36:09;8.33;;;3.53;;
42066;SDS011;27734;47.028;28.820;2024-01-11T11:38:47;8.90;;;3.70;;
42066;SDS011;27734;47.028;28.820;2024-01-11T11:41:19;10.23;;;4.80;;
42066;SDS011;27734;47.028;28.820;2024-01-11T11:43:51;7.35;;;3.65;;
42066;SDS011;27734;47.028;28.820;2024-01-11T11:46:23;7.28;;;3.52;;
42066;SDS011;27734;47.028;28.820;2024-01-11T11:48:54;9.90;;;4.17;;
42066;SDS011;27734;47.028;28.820;2024-01-11T11:51:34;8.17;;;3.80;;
42066;SDS011;27734;47.028;28.820;2024-01-11T11:54:11;6.97;;;3.43;;
42066;SDS011;27734;47.028;28.820;2024-01-11T11:56:44;9.55;;;3.80;;
42066;SDS011;27734;47.028;28.820;2024-01-11T11:59:15;8.30;;;4.05;;
42066;SDS011;27734;47.028;28.820;2024-01-11T12:01:49;10.17;;;3.90;;
42066;SDS011;27734;47.028;28.820;2024-01-11T12:04:28;7.97;;;3.60;;
42066;SDS011;27734;47.028;28.820;2024-01-11T12:07:14;8.10;;;3.70;;
42066;SDS011;27734;47.028;28.820;2024-01-11T12:09:46;10.50;;;4.40;;
42066;SDS011;27734;47.028;28.820;2024-01-11T12:12:29;7.80;;;3.93;;
42066;SDS011;27734;47.028;28.820;2024-01-11T12:15:00;10.17;;;4.03;;
42066;SDS011;27734;47.028;28.820;2024-01-11T12:17:33;7.30;;;3.57;;
42066;SDS011;27734;47.028;28.820;2024-01-11T12:20:09;7.97;;;3.97;;
42066;SDS011;27734;47.028;28.820;2024-01-11T12:22:42;9.27;;;4.07;;
42066;SDS011;27734;47.028;28.820;2024-01-11T12:25:14;9.90;;;4.07;;
42066;SDS011;27734;47.028;28.820;2024-01-11T12:27:46;10.10;;;4.43;;
42066;SDS011;27734;47.028;28.820;2024-01-11T12:30:17;9.77;;;4.53;;
42066;SDS011;27734;47.028;28.820;2024-01-11T12:35:22;11.43;;;4.30;;
42066;SDS011;27734;47.028;28.820;2024-01-11T12:37:54;13.37;;;4.77;;
42066;SDS011;27734;47.028;28.820;2024-01-11T12:40:28;10.88;;;4.62;;
42066;SDS011;27734;47.028;28.820;2024-01-11T12:43:04;12.43;;;4.60;;
42066;SDS011;27734;47.028;28.820;2024-01-11T12:45:36;8.00;;;4.10;;
42066;SDS011;27734;47.028;28.820;2024-01-11T12:48:08;11.67;;;4.37;;
42066;SDS011;27734;47.028;28.820;2024-01-11T12:50:44;10.57;;;4.03;;
42066;SDS011;27734;47.028;28.820;2024-01-11T12:53:16;11.70;;;4.33;;
42066;SDS011;27734;47.028;28.820;2024-01-11T12:55:48;11.30;;;4.77;;
42066;SDS011;27734;47.028;28.820;2024-01-11T12:58:31;13.22;;;4.62;;
42066;SDS011;27734;47.028;28.820;2024-01-11T13:01:05;9.67;;;4.43;;
42066;SDS011;27734;47.028;28.820;2024-01-11T13:03:43;11.23;;;4.33;;
42066;SDS011;27734;47.028;28.820;2024-01-11T13:06:18;12.17;;;4.67;;
42066;SDS011;27734;47.028;28.820;2024-01-11T13:08:50;11.63;;;4.77;;
42066;SDS011;27734;47.028;28.820;2024-01-11T13:11:21;10.93;;;4.70;;
42066;SDS011;27734;47.028;28.820;2024-01-11T13:14:07;9.97;;;4.33;;
42066;SDS011;27734;47.028;28.820;2024-01-11T13:16:44;11.50;;;4.70;;
42066;SDS011;27734;47.028;28.820;2024-01-11T13:19:17;9.93;;;4.30;;
42066;SDS011;27734;47.028;28.820;2024-01-11T13:21:50;11.33;;;4.53;;
42066;SDS011;27734;47.028;28.820;2024-01-11T13:24:21;13.23;;;4.70;;
42066;SDS011;27734;47.028;28.820;2024-01-11T13:26:52;11.10;;;4.33;;
42066;SDS011;27734;47.028;28.820;2024-01-11T13:29:24;10.57;;;4.57;;
42066;SDS011;27734;47.028;28.820;2024-01-11T13:31:58;12.43;;;4.90;;
42066;SDS011;27734;47.028;28.820;2024-01-11T13:34:30;14.20;;;5.10;;
42066;SDS011;27734;47.028;28.820;2024-01-11T13:37:01;10.73;;;4.63;;
42066;SDS011;27734;47.028;28.820;2024-01-11T13:39:33;13.90;;;5.07;;
42066;SDS011;27734;47.028;28.820;2024-01-11T13:42:05;10.23;;;4.60;;
42066;SDS011;27734;47.028;28.820;2024-01-11T13:44:38;10.53;;;4.60;;
42066;SDS011;27734;47.028;28.820;2024-01-11T13:47:10;12.13;;;5.17;;
42066;SDS011;27734;47.028;28.820;2024-01-11T13:49:42;12.63;;;5.47;;
42066;SDS011;27734;47.028;28.820;2024-01-11T13:52:13;11.57;;;4.40;;
42066;SDS011;27734;47.028;28.820;2024-01-11T13:54:45;10.00;;;4.70;;
42066;SDS011;27734;47.028;28.820;2024-01-11T13:57:17;14.83;;;5.27;;
42066;SDS011;27734;47.028;28.820;2024-01-11T13:59:48;11.67;;;4.03;;
42066;SDS011;27734;47.028;28.820;2024-01-11T14:02:19;10.43;;;4.50;;
42066;SDS011;27734;47.028;28.820;2024-01-11T14:04:51;10.93;;;4.30;;
42066;SDS011;27734;47.028;28.820;2024-01-11T14:07:22;10.93;;;4.40;;
42066;SDS011;27734;47.028;28.820;2024-01-11T14:09:53;11.27;;;4.90;;
42066;SDS011;27734;47.028;28.820;2024-01-11T14:12:26;10.30;;;4.20;;
42066;SDS011;27734;47.028;28.820;2024-01-11T14:14:59;10.80;;;4.57;;
42066;SDS011;27734;47.028;28.820;2024-01-11T14:17:39;11.15;;;4.45;;
42066;SDS011;27734;47.028;28.820;2024-01-11T14:20:12;10.83;;;4.63;;
42066;SDS011;27734;47.028;28.820;2024-01-11T14:22:44;12.17;;;4.70;;
42066;SDS011;27734;47.028;28.820;2024-01-11T14:25:17;12.85;;;4.65;;
42066;SDS011;27734;47.028;28.820;2024-01-11T14:27:50;13.20;;;5.07;;
42066;SDS011;27734;47.028;28.820;2024-01-11T14:30:22;13.20;;;5.45;;
42066;SDS011;27734;47.028;28.820;2024-01-11T14:32:54;16.87;;;5.57;;
42066;SDS011;27734;47.028;28.820;2024-01-11T14:35:28;13.07;;;5.30;;
42066;SDS011;27734;47.028;28.820;2024-01-11T14:38:00;16.87;;;4.93;;
42066;SDS011;27734;47.028;28.820;2024-01-11T14:40:32;11.03;;;4.47;;
42066;SDS011;27734;47.028;28.820;2024-01-11T14:43:03;11.17;;;4.50;;
42066;SDS011;27734;47.028;28.820;2024-01-11T14:45:36;13.77;;;5.40;;
42066;SDS011;27734;47.028;28.820;2024-01-11T14:48:07;13.87;;;4.90;;
42066;SDS011;27734;47.028;28.820;2024-01-11T14:50:40;12.87;;;4.73;;